createdAt,value
2019-03-29T00:01:42.411Z,49.93
2019-03-29T00:04:19.500Z,49.40
2019-03-29T00:06:51.974Z,55.33
2019-03-29T00:09:24.136Z,53.97
2019-03-29T00:12:19.657Z,50.87
2019-03-29T00:14:57.067Z,50.87
2019-03-29T00:21:03.169Z,46.27
2019-03-29T00:23:37.759Z,48.03
2019-03-29T00:26:16.574Z,48.53
2019-03-29T00:28:53.148Z,50.60
2019-03-29T00:31:26.739Z,51.33
2019-03-29T00:33:58.920Z,49.47
2019-03-29T00:36:30.876Z,52.23
2019-03-29T00:39:02.848Z,55.17
2019-03-29T00:41:35.119Z,48.23
2019-03-29T00:44:06.971Z,48.30
2019-03-29T00:46:37.946Z,49.73
2019-03-29T00:49:09.643Z,46.50
2019-03-29T00:51:40.291Z,49.87
2019-03-29T00:54:11.523Z,49.40
2019-03-29T00:56:42.582Z,44.97
2019-03-29T00:59:14.299Z,48.20
2019-03-29T01:01:46.351Z,48.17
2019-03-29T01:04:17.846Z,45.70
2019-03-29T01:06:49.398Z,46.67
2019-03-29T01:09:20.168Z,49.10
2019-03-29T01:11:51.587Z,49.57
2019-03-29T01:14:22.923Z,45.57
2019-03-29T01:16:54.151Z,46.43
2019-03-29T01:19:25.934Z,49.40
2019-03-29T01:21:56.661Z,46.50
2019-03-29T01:24:28.844Z,43.77
2019-03-29T01:26:59.468Z,45.17
2019-03-29T01:29:30.347Z,49.97
2019-03-29T01:32:01.859Z,46.23
2019-03-29T01:34:32.169Z,46.33
2019-03-29T01:37:03.331Z,43.77
2019-03-29T01:39:34.153Z,47.10
2019-03-29T01:42:04.990Z,46.73
2019-03-29T01:44:36.433Z,44.60
2019-03-29T01:47:07.276Z,44.07
2019-03-29T01:49:38.504Z,49.93
2019-03-29T01:52:09.465Z,44.97
2019-03-29T01:54:40.077Z,44.77
2019-03-29T01:57:10.815Z,45.07
2019-03-29T01:59:42.986Z,42.83
2019-03-29T02:02:15.180Z,46.33
2019-03-29T02:04:46.723Z,42.90
2019-03-29T02:07:17.646Z,53.43
2019-03-29T02:09:48.379Z,42.13
2019-03-29T02:12:20.347Z,46.37
2019-03-29T02:14:50.971Z,49.20
2019-03-29T02:17:22.512Z,52.07
2019-03-29T02:19:53.666Z,48.83
2019-03-29T02:22:25.848Z,47.03
2019-03-29T02:24:56.554Z,43.80
2019-03-29T02:27:27.495Z,48.53
2019-03-29T02:29:58.177Z,50.27
2019-03-29T02:32:29.160Z,53.23
2019-03-29T02:35:00.458Z,48.27
2019-03-29T02:37:31.578Z,55.33
2019-03-29T02:40:02.418Z,54.77
2019-03-29T02:42:33.850Z,57.53
2019-03-29T02:45:04.571Z,51.03
2019-03-29T02:47:36.979Z,56.27
2019-03-29T02:50:09.139Z,54.50
2019-03-29T02:52:40.667Z,54.60
2019-03-29T02:55:11.522Z,53.57
2019-03-29T02:57:42.971Z,44.93
2019-03-29T03:00:15.021Z,47.17
2019-03-29T03:02:46.898Z,41.87
2019-03-29T03:05:17.944Z,46.83
2019-03-29T03:07:49.909Z,50.07
2019-03-29T03:10:21.530Z,46.50
2019-03-29T03:12:52.463Z,44.73
2019-03-29T03:15:23.207Z,45.27
2019-03-29T03:17:54.559Z,45.20
2019-03-29T03:20:26.441Z,41.33
2019-03-29T03:22:57.985Z,47.87
2019-03-29T03:25:29.524Z,44.10
2019-03-29T03:28:01.128Z,49.50
2019-03-29T03:30:32.034Z,48.33
2019-03-29T03:33:03.775Z,42.13
2019-03-29T03:35:34.498Z,45.97
2019-03-29T03:38:05.536Z,42.27
2019-03-29T03:40:36.489Z,44.83
2019-03-29T03:43:08.050Z,45.97
2019-03-29T03:45:39.924Z,46.97
2019-03-29T03:48:10.826Z,44.53
2019-03-29T03:50:42.782Z,51.33
2019-03-29T03:53:13.540Z,53.97
2019-03-29T03:55:46.722Z,48.83
2019-03-29T03:58:17.757Z,47.13
2019-03-29T04:00:53.525Z,47.67
2019-03-29T04:03:24.751Z,51.77
2019-03-29T04:05:55.810Z,53.07
2019-03-29T04:08:26.520Z,48.10
2019-03-29T04:10:58.841Z,49.10
2019-03-29T04:13:29.747Z,50.47
2019-03-29T04:16:01.515Z,50.50
2019-03-29T04:18:32.217Z,47.40
2019-03-29T04:21:02.874Z,50.93
2019-03-29T04:23:34.720Z,49.37
2019-03-29T05:06:35.094Z,52.10
2019-03-29T05:12:33.823Z,50.53
2019-03-29T05:25:23.441Z,53.53
2019-03-29T05:35:03.151Z,53.97
2019-03-29T05:37:37.559Z,56.30
2019-03-29T05:40:09.101Z,49.73
2019-03-29T05:42:40.558Z,53.70
2019-03-29T05:45:11.501Z,48.80
2019-03-29T05:47:46.950Z,52.17
2019-03-29T05:50:18.920Z,48.93
2019-03-29T05:52:49.843Z,49.97
2019-03-29T05:55:32.073Z,51.33
2019-03-29T05:58:00.526Z,56.13
2019-03-29T06:00:31.818Z,50.97
2019-03-29T06:03:05.803Z,49.63
2019-03-29T06:05:36.720Z,59.67
2019-03-29T06:08:07.861Z,54.47
2019-03-29T06:10:48.701Z,58.37
2019-03-29T06:13:11.900Z,58.07
2019-03-29T06:15:43.683Z,55.70
2019-03-29T06:18:37.126Z,56.40
2019-03-29T06:21:22.500Z,55.17
2019-03-29T06:23:54.989Z,53.80
2019-03-29T06:26:26.516Z,56.83
2019-03-29T06:28:57.577Z,51.03
2019-03-29T06:31:28.496Z,57.27
2019-03-29T06:33:59.552Z,57.90
2019-03-29T06:36:32.325Z,60.00
2019-03-29T06:39:04.998Z,54.53
2019-03-29T06:41:36.137Z,55.93
2019-03-29T06:44:06.871Z,55.57
2019-03-29T06:46:37.509Z,59.17
2019-03-29T06:49:10.289Z,57.93
2019-03-29T06:51:41.521Z,58.40
2019-03-29T06:54:12.072Z,50.83
2019-03-29T06:56:43.096Z,49.73
2019-03-29T06:59:14.546Z,51.17
2019-03-29T07:01:46.593Z,51.27
2019-03-29T07:04:21.855Z,49.67
2019-03-29T07:06:52.897Z,42.97
2019-03-29T07:09:23.932Z,42.40
2019-03-29T07:11:55.782Z,47.80
2019-03-29T07:14:26.525Z,45.67
2019-03-29T07:17:02.883Z,46.33
2019-03-29T07:19:33.617Z,44.90
2019-03-29T07:22:05.483Z,40.53
2019-03-29T07:24:36.843Z,41.20
2019-03-29T07:27:17.913Z,43.17
2019-03-29T07:29:49.793Z,44.50
2019-03-29T07:32:23.175Z,37.60
2019-03-29T07:37:50.540Z,38.43
2019-03-29T07:40:21.374Z,41.40
2019-03-29T07:43:05.734Z,43.70
2019-03-29T07:45:43.933Z,42.37
2019-03-29T09:59:26.891Z,12.07
2019-03-29T10:01:57.535Z,11.70
2019-03-29T10:04:27.954Z,13.10
2019-03-29T10:07:01.974Z,12.07
2019-03-29T10:09:32.895Z,12.33
2019-03-29T10:12:03.825Z,13.53
2019-03-29T10:14:34.106Z,13.03
2019-03-29T10:17:04.274Z,13.63
2019-03-29T10:19:34.695Z,13.00
2019-03-29T10:22:06.154Z,12.90
2019-03-29T10:24:37.293Z,12.73
2019-03-29T10:27:08.339Z,14.07
2019-03-29T10:29:39.064Z,14.90
2019-03-29T10:32:13.794Z,14.67
2019-03-29T10:34:44.215Z,12.90
2019-03-29T10:37:14.954Z,13.67
2019-03-29T10:39:45.161Z,14.07
2019-03-29T10:42:16.137Z,14.23
2019-03-29T10:44:54.114Z,13.70
2019-03-29T10:47:42.355Z,13.33
2019-03-29T10:49:58.549Z,13.00
2019-03-29T10:52:29.490Z,13.50
2019-03-29T10:55:00.523Z,14.23
2019-03-29T10:57:30.856Z,12.60
2019-03-29T11:00:01.275Z,11.33
2019-03-29T11:02:32.525Z,13.00
2019-03-29T11:05:04.396Z,12.33
2019-03-29T11:07:35.524Z,12.70
2019-03-29T11:10:07.491Z,12.70
2019-03-29T11:12:38.744Z,13.27
2019-03-29T11:15:09.074Z,12.80
2019-03-29T11:17:40.516Z,12.40
2019-03-29T11:20:12.075Z,12.87
2019-03-29T11:22:43.105Z,12.53
2019-03-29T11:25:14.147Z,13.10
2019-03-29T11:27:44.894Z,12.60
2019-03-29T11:30:15.404Z,11.07
2019-03-29T11:32:46.034Z,10.93
2019-03-29T11:35:16.776Z,10.73
2019-03-29T11:37:47.602Z,10.60
2019-03-29T11:40:47.724Z,9.60
2019-03-29T11:43:26.467Z,10.03
2019-03-29T11:45:51.855Z,10.50
2019-03-29T11:48:22.814Z,11.30
2019-03-29T11:50:53.215Z,10.07
2019-03-29T11:53:23.855Z,9.30
2019-03-29T11:55:54.584Z,9.90
2019-03-29T11:58:25.415Z,11.07
2019-03-29T12:00:56.664Z,9.50
2019-03-29T12:03:50.644Z,9.60
2019-03-29T12:06:23.835Z,10.40
2019-03-29T12:08:57.115Z,7.43
2019-03-29T12:11:27.244Z,7.87
2019-03-29T12:13:57.774Z,7.60
2019-03-29T12:16:28.314Z,7.70
2019-03-29T12:18:59.134Z,8.00
2019-03-29T12:21:30.484Z,8.27
2019-03-29T12:24:00.915Z,7.63
2019-03-29T12:26:31.334Z,6.90
2019-03-29T12:29:01.771Z,7.57
2019-03-29T12:31:32.717Z,7.77
2019-03-29T12:34:03.335Z,6.47
2019-03-29T12:36:37.773Z,7.40
2019-03-29T12:39:12.594Z,8.87
2019-03-29T12:41:43.524Z,8.50
2019-03-29T12:44:13.844Z,8.67
2019-03-29T12:46:44.394Z,9.20
2019-03-29T12:49:15.526Z,9.00
2019-03-29T12:51:47.112Z,9.40
2019-03-29T12:54:18.416Z,8.93
2019-03-29T12:56:49.185Z,10.00
2019-03-29T12:59:20.035Z,8.03
2019-03-29T13:01:51.024Z,8.40
2019-03-29T13:04:21.355Z,9.33
2019-03-29T13:06:51.977Z,8.60
2019-03-29T13:09:23.744Z,7.83
2019-03-29T13:11:53.955Z,8.53
2019-03-29T13:14:26.143Z,16.00
2019-03-29T13:17:02.889Z,14.27
2019-03-29T13:19:33.952Z,11.53
2019-03-29T13:22:07.234Z,11.33
2019-03-29T13:24:38.883Z,9.47
2019-03-29T13:27:09.830Z,6.93
2019-03-29T13:29:56.028Z,8.07
2019-03-29T13:35:33.226Z,8.47
2019-03-29T13:38:04.174Z,8.57
2019-03-29T13:40:35.823Z,7.70
2019-03-29T13:43:19.152Z,7.67
2019-03-29T13:45:50.915Z,8.37
2019-03-29T13:48:21.744Z,8.23
2019-03-29T13:50:52.884Z,8.20
2019-03-29T13:53:23.934Z,8.53
2019-03-29T13:55:54.473Z,8.23
2019-03-29T13:58:24.774Z,7.33
2019-03-29T14:04:36.494Z,7.07
2019-03-29T14:07:07.854Z,8.37
2019-03-29T14:09:39.898Z,9.60
2019-03-29T14:12:15.243Z,6.87
2019-03-29T14:14:47.926Z,7.93
2019-03-29T14:17:27.174Z,9.93
2019-03-29T14:20:04.564Z,8.20
2019-03-29T14:23:12.246Z,8.90
2019-03-29T14:25:52.394Z,9.53
2019-03-29T14:28:25.074Z,8.43
2019-03-29T14:30:56.524Z,9.43
2019-03-29T14:33:27.275Z,10.37
2019-03-29T14:35:58.819Z,12.50
2019-03-29T14:38:32.434Z,11.90
2019-03-29T14:41:03.455Z,11.53
2019-03-29T14:43:35.433Z,13.43
2019-03-29T14:46:11.102Z,12.27
2019-03-29T14:48:44.994Z,12.43
2019-03-29T14:51:22.971Z,15.53
2019-03-29T14:53:54.742Z,13.00
2019-03-29T14:56:26.174Z,11.20
2019-03-29T14:58:58.552Z,12.07
2019-03-29T15:01:30.532Z,10.80
2019-03-29T15:04:01.761Z,11.27
2019-03-29T15:06:35.567Z,11.10
2019-03-29T15:09:08.141Z,11.13
2019-03-29T15:11:39.487Z,11.10
2019-03-29T15:14:10.742Z,11.33
2019-03-29T15:16:41.376Z,10.03
2019-03-29T15:19:12.836Z,10.23
2019-03-29T15:21:44.587Z,10.03
2019-03-29T15:24:15.830Z,10.07
2019-03-29T15:26:47.687Z,12.53
2019-03-29T15:29:18.955Z,11.23
2019-03-29T15:31:50.471Z,10.40
2019-03-29T15:34:21.156Z,11.60
2019-03-29T15:36:52.564Z,9.63
2019-03-29T15:39:24.542Z,11.10
2019-03-29T15:41:55.781Z,11.57
2019-03-29T15:44:26.920Z,9.90
2019-03-29T15:46:58.686Z,10.00
2019-03-29T15:49:29.830Z,9.57
2019-03-29T15:52:02.000Z,10.60
2019-03-29T15:54:33.953Z,13.77
2019-03-29T15:57:07.360Z,11.20
2019-03-29T15:59:38.924Z,12.03
2019-03-29T16:02:10.233Z,12.57
2019-03-29T16:04:40.870Z,13.73
2019-03-29T16:07:11.737Z,13.53
2019-03-29T16:09:42.979Z,11.63
2019-03-29T16:12:14.106Z,11.93
2019-03-29T16:14:47.174Z,10.03
2019-03-29T16:17:18.532Z,12.23
2019-03-29T16:19:49.792Z,11.80
2019-03-29T16:22:24.510Z,11.40
2019-03-29T16:24:56.280Z,10.87
2019-03-29T16:27:27.822Z,9.40
2019-03-29T16:30:00.360Z,9.37
2019-03-29T16:32:31.955Z,9.17
2019-03-29T16:35:03.493Z,12.87
2019-03-29T16:37:36.172Z,13.00
2019-03-29T16:40:07.618Z,13.10
2019-03-29T16:42:41.027Z,12.17
2019-03-29T16:45:12.703Z,12.37
2019-03-29T16:47:43.518Z,12.77
2019-03-29T16:50:14.972Z,11.67
2019-03-29T16:52:46.748Z,12.33
2019-03-29T16:55:19.159Z,11.03
2019-03-29T16:57:50.861Z,13.87
2019-03-29T17:00:21.920Z,14.53
2019-03-29T17:02:53.544Z,12.73
2019-03-29T17:05:30.341Z,12.07
2019-03-29T17:08:05.762Z,12.27
2019-03-29T17:10:36.691Z,11.80
2019-03-29T17:13:08.902Z,13.23
2019-03-29T17:15:41.342Z,12.17
2019-03-29T17:18:13.021Z,11.70
2019-03-29T17:20:48.234Z,12.83
2019-03-29T17:47:41.667Z,24.30
2019-03-29T18:01:06.810Z,26.70
2019-03-29T18:57:05.160Z,98.27
2019-03-29T18:59:42.737Z,112.77
2019-03-29T19:02:24.729Z,101.80
2019-03-29T19:05:02.224Z,111.77
2019-03-29T19:07:37.050Z,137.53
2019-03-29T19:10:15.372Z,131.50
2019-03-29T19:12:52.650Z,125.83
2019-03-29T19:15:26.175Z,144.10
2019-03-29T19:18:16.585Z,141.23
2019-03-29T19:21:04.790Z,137.33
2019-03-29T19:23:49.040Z,133.70
2019-03-29T19:26:25.810Z,148.20
2019-03-29T19:29:13.664Z,129.37
2019-03-29T19:31:48.161Z,127.50
2019-03-29T19:34:24.144Z,133.60
2019-03-29T19:37:01.733Z,143.00
2019-03-29T19:39:50.891Z,124.27
2019-03-29T19:42:31.663Z,133.20
2019-03-29T19:45:23.187Z,147.77
2019-03-29T19:48:22.275Z,140.93
2019-03-29T19:51:06.128Z,140.27
2019-03-29T19:54:21.023Z,127.17
2019-03-29T20:00:39.192Z,104.23
2019-03-29T20:03:24.048Z,101.27
2019-03-29T20:06:00.159Z,94.70
2019-03-29T20:08:37.150Z,114.70
2019-03-29T20:11:12.078Z,107.53
2019-03-29T20:13:48.751Z,107.37
2019-03-29T20:16:27.681Z,114.73
2019-03-29T20:19:04.901Z,83.30
2019-03-29T20:21:39.007Z,89.10
2019-03-29T20:24:32.880Z,90.43
2019-03-29T20:27:18.645Z,80.07
2019-03-29T20:29:56.135Z,96.77
2019-03-29T20:32:32.806Z,116.17
2019-03-29T20:35:10.186Z,106.33
2019-03-29T20:38:06.852Z,96.07
2019-03-29T20:40:42.603Z,86.13
2019-03-29T20:43:17.543Z,100.63
2019-03-29T20:45:51.229Z,109.50
2019-03-29T20:48:33.567Z,96.60
2019-03-29T20:51:07.471Z,105.13
2019-03-29T20:53:43.747Z,110.80
2019-03-29T20:56:20.300Z,113.97
2019-03-29T20:58:52.535Z,110.70
2019-03-29T21:01:26.581Z,113.13
2019-03-29T21:03:58.932Z,116.50
2019-03-29T21:06:35.612Z,110.97
2019-03-29T21:09:10.179Z,120.43
2019-03-29T21:12:02.491Z,127.87
2019-03-29T21:14:39.728Z,132.50
2019-03-29T21:17:13.688Z,132.40
2019-03-29T21:19:46.196Z,132.77
2019-03-29T21:22:27.805Z,129.37
2019-03-29T21:25:22.497Z,131.10
2019-03-29T21:28:05.522Z,124.13
2019-03-29T21:30:39.135Z,130.70
2019-03-29T21:33:13.036Z,134.53
2019-03-29T21:35:49.292Z,130.73
2019-03-29T21:38:31.939Z,141.27
2019-03-29T21:41:11.067Z,139.00
2019-03-29T21:43:50.383Z,137.60
2019-03-29T21:46:50.083Z,135.23
2019-03-29T21:49:28.602Z,146.50
2019-03-29T21:52:07.343Z,139.93
2019-03-29T21:54:37.134Z,141.33
2019-03-29T21:57:21.727Z,135.53
2019-03-29T22:00:00.541Z,136.77
2019-03-29T22:02:33.515Z,137.13
2019-03-29T22:05:06.008Z,137.30
2019-03-29T22:07:38.175Z,127.30
2019-03-29T22:10:13.086Z,136.83
2019-03-29T22:12:44.948Z,142.43
2019-03-29T22:15:16.397Z,149.60
2019-03-29T22:17:50.492Z,154.83
2019-03-29T22:20:26.803Z,151.53
2019-03-29T22:22:57.900Z,152.97
2019-03-29T22:25:32.940Z,147.27
2019-03-29T22:28:04.592Z,142.93
2019-03-29T22:30:35.643Z,142.73
2019-03-29T22:33:09.565Z,133.40
2019-03-29T22:35:40.907Z,132.17
2019-03-29T22:38:12.862Z,132.80
2019-03-29T22:40:44.819Z,130.33
2019-03-29T22:43:34.493Z,127.57
2019-03-29T22:46:05.150Z,108.10
2019-03-29T22:48:35.866Z,125.27
2019-03-29T22:51:06.601Z,113.67
2019-03-29T22:53:37.422Z,126.07
2019-03-29T22:56:08.060Z,131.83
2019-03-29T22:58:42.587Z,123.40
2019-03-29T23:01:13.431Z,124.73
2019-03-29T23:03:44.772Z,130.30
2019-03-29T23:06:15.498Z,126.10
2019-03-29T23:08:46.152Z,121.80
2019-03-29T23:11:17.178Z,117.33
2019-03-29T23:13:48.532Z,124.03
2019-03-29T23:16:20.382Z,115.87
2019-03-29T23:19:05.522Z,109.67
2019-03-29T23:21:24.319Z,108.93
2019-03-29T23:23:55.959Z,105.00
2019-03-29T23:26:28.155Z,104.23
2019-03-29T23:29:00.085Z,97.57
2019-03-29T23:31:32.165Z,82.90
2019-03-29T23:34:06.172Z,77.37
2019-03-29T23:36:44.691Z,73.77
2019-03-29T23:39:18.092Z,93.57
2019-03-29T23:41:51.073Z,84.97
2019-03-29T23:44:22.931Z,81.57
2019-03-29T23:46:54.272Z,84.83
2019-03-29T23:49:25.508Z,82.80
2019-03-29T23:51:56.540Z,76.63
2019-03-29T23:54:28.501Z,90.07
2019-03-29T23:56:59.953Z,94.07
2019-03-29T23:59:31.011Z,87.53
